Terminal Aerodrome Forecast
Issued by NWS Austin/San Antonio, TX

Home | Current Version | Previous Version | Text Only | Print | Product List | Glossary On
Versions: 1 2 3 4 5 6 7 8 9 10 11 12 13 14 15 16 17 18 19 20 21 22 23 24 25 26 27 28 29 30
000
FTUS44 KEWX 202320
TAFSAT
TAF
KSAT 202320Z 2100/2206 20005KT P6SM SCT250
     FM210800 19004KT 4SM BR BKN007
     FM211000 20003KT 1/2SM FG BKN003
     FM211600 24013KT P6SM BKN250=

USA.gov is the U.S. government's official web portal to all federal, state and local government web resources and services.